createdAt,value
2018-05-23T00:01:44.037Z,10.03
2018-05-23T00:04:10.860Z,10.00
2018-05-23T00:06:37.553Z,8.77
2018-05-23T00:09:05.737Z,11.03
2018-05-23T00:11:34.228Z,10.13
2018-05-23T00:14:02.793Z,9.10
2018-05-23T00:16:31.655Z,12.67
2018-05-23T00:19:00.198Z,12.33
2018-05-23T00:21:29.157Z,10.63
2018-05-23T00:23:57.444Z,12.07
2018-05-23T00:26:24.260Z,10.60
2018-05-23T00:28:51.033Z,12.13
2018-05-23T00:31:17.761Z,9.13
2018-05-23T00:33:44.536Z,9.20
2018-05-23T00:36:11.336Z,8.93
2018-05-23T00:38:38.156Z,10.97
2018-05-23T00:41:04.932Z,11.17
2018-05-23T00:43:31.709Z,8.00
2018-05-23T00:45:58.478Z,13.97
2018-05-23T00:48:25.231Z,9.60
2018-05-23T00:50:51.996Z,8.83
2018-05-23T00:53:18.811Z,12.00
2018-05-23T00:55:45.600Z,10.20
2018-05-23T00:58:12.376Z,12.27
2018-05-23T01:00:39.154Z,8.53
2018-05-23T01:03:05.937Z,9.77
2018-05-23T01:05:33.148Z,13.07
2018-05-23T01:07:59.939Z,11.83
2018-05-23T01:10:26.668Z,9.20
2018-05-23T01:12:53.389Z,8.27
2018-05-23T01:15:20.153Z,8.93
2018-05-23T01:17:46.918Z,10.20
2018-05-23T01:20:13.736Z,11.37
2018-05-23T01:22:41.168Z,13.07
2018-05-23T01:25:07.936Z,11.97
2018-05-23T01:27:34.726Z,12.60
2018-05-23T01:30:02.444Z,11.07
2018-05-23T01:32:29.194Z,14.50
2018-05-23T01:34:55.935Z,11.30
2018-05-23T01:37:23.047Z,12.97
2018-05-23T01:39:49.913Z,14.60
2018-05-23T01:42:16.665Z,12.47
2018-05-23T01:44:43.451Z,11.77
2018-05-23T01:47:10.262Z,10.50
2018-05-23T01:49:37.012Z,12.27
2018-05-23T01:52:03.781Z,13.73
2018-05-23T01:54:31.357Z,9.37
2018-05-23T01:56:58.899Z,11.50
2018-05-23T01:59:25.637Z,9.40
2018-05-23T02:01:53.092Z,13.37
2018-05-23T02:04:19.884Z,12.60
2018-05-23T02:06:46.664Z,9.67
2018-05-23T02:09:13.477Z,11.20
2018-05-23T02:11:40.287Z,13.27
2018-05-23T02:14:07.060Z,15.17
2018-05-23T02:16:33.843Z,15.67
2018-05-23T02:19:00.628Z,11.37
2018-05-23T02:21:27.400Z,13.90
2018-05-23T02:23:54.197Z,14.00
2018-05-23T02:26:20.987Z,10.93
2018-05-23T02:28:47.773Z,10.77
2018-05-23T02:31:14.549Z,15.20
2018-05-23T02:33:41.961Z,17.40
2018-05-23T02:36:09.455Z,13.47
2018-05-23T02:38:36.241Z,11.37
2018-05-23T02:41:03.061Z,10.93
2018-05-23T02:43:29.811Z,15.70
2018-05-23T02:45:57.284Z,15.63
2018-05-23T02:48:24.104Z,12.20
2018-05-23T02:50:50.880Z,19.73
2018-05-23T02:53:17.648Z,18.27
2018-05-23T02:55:44.687Z,17.53
2018-05-23T02:58:11.437Z,16.70
2018-05-23T03:00:38.465Z,17.37
2018-05-23T03:03:05.360Z,14.37
2018-05-23T03:05:32.069Z,14.10
2018-05-23T03:07:58.845Z,15.30
2018-05-23T03:10:26.423Z,15.70
2018-05-23T03:12:53.215Z,12.27
2018-05-23T03:15:19.994Z,11.80
2018-05-23T03:17:46.801Z,11.57
2018-05-23T03:20:13.545Z,14.33
2018-05-23T03:22:40.316Z,14.90
2018-05-23T03:25:07.113Z,14.53
2018-05-23T03:27:33.883Z,9.80
2018-05-23T03:30:00.891Z,13.33
2018-05-23T03:32:27.641Z,12.70
2018-05-23T03:34:54.403Z,10.00
2018-05-23T03:37:21.895Z,10.67
2018-05-23T03:39:48.672Z,13.63
2018-05-23T03:42:15.453Z,11.73
2018-05-23T03:44:42.366Z,13.40
2018-05-23T03:47:09.148Z,11.53
2018-05-23T03:49:36.518Z,11.30
2018-05-23T03:52:03.273Z,15.47
2018-05-23T03:54:30.024Z,9.70
2018-05-23T03:56:57.527Z,8.97
2018-05-23T03:59:30.268Z,11.80
2018-05-23T04:02:04.034Z,9.67
2018-05-23T04:04:36.529Z,10.67
2018-05-23T04:07:09.307Z,12.23
2018-05-23T04:09:36.457Z,10.87
2018-05-23T04:12:03.204Z,10.03
2018-05-23T04:14:29.993Z,11.13
2018-05-23T04:16:56.764Z,9.07
2018-05-23T04:19:23.550Z,8.30
2018-05-23T04:21:50.856Z,11.67
2018-05-23T04:24:17.632Z,10.60
2018-05-23T04:26:44.480Z,12.70
2018-05-23T04:29:11.225Z,13.33
2018-05-23T04:31:38.022Z,12.53
2018-05-23T04:34:04.779Z,9.47
2018-05-23T04:36:32.251Z,11.90
2018-05-23T04:38:59.025Z,13.23
2018-05-23T04:41:26.788Z,15.97
2018-05-23T04:43:53.543Z,12.90
2018-05-23T04:46:20.327Z,10.17
2018-05-23T04:48:47.151Z,10.03
2018-05-23T04:51:13.925Z,11.43
2018-05-23T04:53:40.691Z,11.03
2018-05-23T04:56:07.490Z,12.23
2018-05-23T04:58:34.341Z,10.10
2018-05-23T05:01:01.450Z,11.63
2018-05-23T05:03:28.215Z,10.13
2018-05-23T05:05:54.989Z,11.60
2018-05-23T05:08:21.755Z,10.32
2018-05-23T05:10:48.532Z,10.70
2018-05-23T05:13:15.296Z,13.05
2018-05-23T05:15:42.067Z,14.07
2018-05-23T05:18:09.329Z,11.48
2018-05-23T05:20:36.132Z,11.60
2018-05-23T05:23:02.943Z,15.95
2018-05-23T05:25:30.442Z,15.38
2018-05-23T05:27:57.253Z,11.63
2018-05-23T05:30:23.994Z,11.82
2018-05-23T05:32:50.953Z,13.40
2018-05-23T05:35:17.740Z,15.13
2018-05-23T05:37:44.501Z,13.18
2018-05-23T05:40:11.268Z,15.15
2018-05-23T05:42:38.797Z,16.02
2018-05-23T05:45:05.571Z,13.23
2018-05-23T05:47:32.660Z,13.35
2018-05-23T05:50:00.147Z,18.25
2018-05-23T05:52:26.978Z,11.12
2018-05-23T05:54:53.727Z,12.82
2018-05-23T05:57:20.567Z,14.15
2018-05-23T05:59:47.365Z,16.50
2018-05-23T06:02:14.245Z,11.65
2018-05-23T06:04:41.089Z,12.25
2018-05-23T06:07:08.593Z,12.00
2018-05-23T06:09:35.405Z,14.23
2018-05-23T06:12:02.234Z,12.00
2018-05-23T06:14:28.993Z,14.70
2018-05-23T06:16:56.767Z,11.07
2018-05-23T06:19:24.252Z,16.62
2018-05-23T06:21:51.094Z,15.70
2018-05-23T06:24:18.663Z,13.45
2018-05-23T06:26:45.443Z,11.65
2018-05-23T06:29:12.947Z,13.90
2018-05-23T06:31:40.050Z,13.50
2018-05-23T06:34:06.858Z,14.40
2018-05-23T06:36:33.708Z,15.93
2018-05-23T06:39:00.531Z,15.23
2018-05-23T06:41:27.324Z,18.20
2018-05-23T06:43:54.746Z,15.30
2018-05-23T06:46:21.521Z,15.23
2018-05-23T06:48:48.388Z,16.30
2018-05-23T06:51:15.140Z,16.45
2018-05-23T06:53:41.923Z,18.77
2018-05-23T06:56:08.725Z,18.67
2018-05-23T06:58:35.502Z,18.52
2018-05-23T07:01:02.362Z,16.02
2018-05-23T07:03:29.173Z,18.10
2018-05-23T07:05:56.623Z,22.37
2018-05-23T07:08:23.396Z,18.47
2018-05-23T07:10:50.192Z,19.17
2018-05-23T07:13:17.026Z,18.47
2018-05-23T07:15:44.130Z,20.80
2018-05-23T07:18:10.920Z,17.90
2018-05-23T07:20:38.250Z,21.00
2018-05-23T07:23:05.584Z,18.90
2018-05-23T07:25:33.652Z,23.93
2018-05-23T07:28:00.446Z,17.97
2018-05-23T07:30:27.217Z,18.67
2018-05-23T07:32:54.013Z,17.63
2018-05-23T07:35:20.851Z,20.47
2018-05-23T07:37:59.234Z,22.87
2018-05-23T07:40:26.056Z,18.60
2018-05-23T07:42:52.860Z,23.40
2018-05-23T07:45:19.628Z,19.33
2018-05-23T07:47:46.430Z,18.30
2018-05-23T07:50:13.196Z,18.67
2018-05-23T07:52:40.793Z,18.70
2018-05-23T07:55:07.573Z,17.67
2018-05-23T07:57:34.325Z,16.77
2018-05-23T08:00:01.101Z,17.05
2018-05-23T08:02:27.935Z,19.50
2018-05-23T08:04:54.712Z,16.13
2018-05-23T08:07:21.441Z,16.75
2018-05-23T08:09:48.343Z,17.95
2018-05-23T08:12:15.098Z,17.30
2018-05-23T08:14:41.867Z,16.55
2018-05-23T08:17:08.612Z,16.87
2018-05-23T08:19:35.357Z,15.45
2018-05-23T08:22:02.150Z,16.62
2018-05-23T08:24:29.014Z,22.33
2018-05-23T08:26:55.701Z,15.18
2018-05-23T08:29:22.480Z,15.93
2018-05-23T08:31:49.230Z,17.05
2018-05-23T08:34:16.031Z,15.88
2018-05-23T08:36:42.807Z,17.75
2018-05-23T08:39:09.562Z,18.42
2018-05-23T08:41:36.353Z,18.10
2018-05-23T08:44:03.105Z,16.55
2018-05-23T08:46:29.857Z,15.23
2018-05-23T08:48:56.614Z,15.13
2018-05-23T08:51:23.364Z,14.87
2018-05-23T08:53:50.118Z,16.83
2018-05-23T08:56:16.861Z,17.52
2018-05-23T08:58:43.617Z,16.55
2018-05-23T09:01:10.381Z,16.45
2018-05-23T09:03:37.142Z,18.02
2018-05-23T09:06:03.915Z,19.80
2018-05-23T09:08:30.675Z,23.75
2018-05-23T09:10:58.007Z,15.48
2018-05-23T09:13:24.752Z,17.05
2018-05-23T09:15:51.504Z,21.12
2018-05-23T09:18:18.249Z,17.27
2018-05-23T09:20:45.021Z,20.15
2018-05-23T09:23:11.778Z,20.17
2018-05-23T09:25:38.577Z,21.30
2018-05-23T09:28:05.364Z,19.17
2018-05-23T09:30:32.133Z,17.70
2018-05-23T09:32:58.897Z,18.08
2018-05-23T09:35:25.672Z,18.12
2018-05-23T09:37:52.631Z,17.40
2018-05-23T09:40:19.376Z,16.70
2018-05-23T09:42:46.116Z,16.52
2018-05-23T09:45:12.965Z,17.37
2018-05-23T09:47:39.801Z,15.80
2018-05-23T09:50:06.558Z,18.80
2018-05-23T09:52:33.334Z,29.87
2018-05-23T09:55:00.166Z,19.00
2018-05-23T09:57:28.385Z,16.30
2018-05-23T09:59:59.709Z,21.75
2018-05-23T10:02:26.470Z,17.87
2018-05-23T10:04:53.233Z,20.17
2018-05-23T10:07:19.990Z,16.48
2018-05-23T10:09:47.353Z,12.98
2018-05-23T10:12:14.113Z,16.10
2018-05-23T10:14:40.903Z,14.25
2018-05-23T10:17:07.655Z,11.80
2018-05-23T10:19:34.405Z,9.93
2018-05-23T10:22:01.149Z,9.43
2018-05-23T10:24:27.908Z,13.60
2018-05-23T10:26:54.709Z,9.43
2018-05-23T10:29:21.429Z,9.13
2018-05-23T10:31:48.169Z,7.95
2018-05-23T10:34:14.905Z,10.65
2018-05-23T10:36:41.701Z,8.95
2018-05-23T10:39:08.594Z,8.25
2018-05-23T10:41:35.435Z,8.00
2018-05-23T10:44:03.137Z,6.65
2018-05-23T10:46:29.874Z,9.48
2018-05-23T10:48:56.686Z,7.05
2018-05-23T10:51:23.454Z,6.25
2018-05-23T10:53:50.225Z,8.88
2018-05-23T10:56:16.981Z,8.32
2018-05-23T10:58:43.789Z,7.70
2018-05-23T11:01:10.557Z,8.02
2018-05-23T11:03:37.359Z,10.63
2018-05-23T11:06:04.137Z,11.10
2018-05-23T11:08:31.705Z,8.32
2018-05-23T11:10:58.484Z,10.30
2018-05-23T11:13:25.280Z,8.43
2018-05-23T11:15:52.509Z,8.35
2018-05-23T11:18:19.260Z,7.90
2018-05-23T11:20:46.086Z,8.20
2018-05-23T11:23:12.923Z,7.72
2018-05-23T11:25:40.327Z,10.93
2018-05-23T11:28:07.112Z,6.47
2018-05-23T11:30:33.892Z,9.50
2018-05-23T11:33:01.539Z,8.95
2018-05-23T11:35:28.320Z,7.05
2018-05-23T11:37:55.119Z,5.75
2018-05-23T11:40:22.618Z,7.37
2018-05-23T11:42:49.371Z,5.15
2018-05-23T11:45:16.145Z,8.93
2018-05-23T11:47:42.921Z,8.35
2018-05-23T11:50:09.698Z,6.65
2018-05-23T11:52:36.477Z,6.62
2018-05-23T11:55:03.240Z,7.03
2018-05-23T11:57:30.011Z,6.07
2018-05-23T11:59:56.792Z,6.18
2018-05-23T12:02:24.144Z,6.10
2018-05-23T12:04:50.901Z,6.65
2018-05-23T12:07:17.681Z,11.95
2018-05-23T12:09:44.424Z,8.13
2018-05-23T12:12:11.221Z,11.70
2018-05-23T12:14:38.856Z,8.23
2018-05-23T12:17:05.638Z,9.88
2018-05-23T12:19:32.504Z,6.72
2018-05-23T12:21:59.252Z,6.78
2018-05-23T12:24:27.185Z,7.28
2018-05-23T12:26:53.927Z,6.68
2018-05-23T12:29:20.684Z,8.65
2018-05-23T12:31:47.476Z,7.93
2018-05-23T12:34:14.224Z,7.78
2018-05-23T12:36:40.968Z,7.68
2018-05-23T12:39:07.753Z,7.18
2018-05-23T12:41:34.581Z,13.62
2018-05-23T12:44:01.369Z,7.93
2018-05-23T12:46:28.799Z,8.35
2018-05-23T12:48:55.632Z,8.50
2018-05-23T12:51:22.425Z,8.10
2018-05-23T12:53:49.244Z,9.30
2018-05-23T12:56:16.038Z,8.25
2018-05-23T12:58:42.848Z,8.00
2018-05-23T13:01:09.611Z,7.37
2018-05-23T13:03:36.378Z,8.70
2018-05-23T13:06:03.184Z,10.88
2018-05-23T13:08:29.963Z,9.85
2018-05-23T13:10:56.759Z,8.93
2018-05-23T13:13:23.528Z,8.25
2018-05-23T13:15:51.006Z,7.90
2018-05-23T13:18:17.802Z,8.55
2018-05-23T13:20:44.899Z,12.35
2018-05-23T13:23:21.597Z,8.63
2018-05-23T13:25:48.587Z,8.55
2018-05-23T13:28:15.506Z,7.70
2018-05-23T13:30:42.596Z,8.90
2018-05-23T13:33:13.521Z,8.10
2018-05-23T13:35:40.288Z,9.00
2018-05-23T13:38:07.085Z,8.88
2018-05-23T13:40:33.916Z,8.88
2018-05-23T13:43:00.689Z,8.93
2018-05-23T13:45:27.506Z,9.13
2018-05-23T13:47:54.324Z,9.65
2018-05-23T13:50:21.050Z,9.32
2018-05-23T13:52:47.776Z,10.07
2018-05-23T13:55:14.652Z,11.02
2018-05-23T13:57:41.351Z,11.50
2018-05-23T14:00:08.432Z,33.85
2018-05-23T14:02:35.185Z,25.90
2018-05-23T14:05:01.989Z,29.58
2018-05-23T14:07:28.921Z,24.45
2018-05-23T14:09:55.708Z,26.90
2018-05-23T14:12:22.489Z,23.00
2018-05-23T14:14:49.298Z,201.87
2018-05-23T14:17:16.097Z,163.20
2018-05-23T14:19:43.589Z,23.80
2018-05-23T14:22:10.393Z,25.27
2018-05-23T14:24:37.373Z,20.73
2018-05-23T14:27:04.198Z,23.77
2018-05-23T14:29:30.981Z,22.00
2018-05-23T14:31:57.824Z,27.83
2018-05-23T14:34:35.839Z,30.13
2018-05-23T14:37:02.592Z,26.77
2018-05-23T14:39:29.439Z,33.70
2018-05-23T14:41:56.272Z,28.30
2018-05-23T14:44:23.087Z,28.30
2018-05-23T14:46:49.962Z,33.53
2018-05-23T14:49:17.353Z,35.33
2018-05-23T14:51:47.524Z,35.57
2018-05-23T14:54:14.717Z,29.63
2018-05-23T14:56:41.958Z,26.33
2018-05-23T14:59:08.756Z,22.90
2018-05-23T15:01:35.700Z,20.47
2018-05-23T15:04:02.477Z,18.97
2018-05-23T15:06:29.272Z,18.10
2018-05-23T15:08:56.717Z,17.07
2018-05-23T15:11:22.861Z,18.33
2018-05-23T15:13:49.625Z,19.17
2018-05-23T15:16:16.416Z,17.80
2018-05-23T15:18:43.210Z,17.00
2018-05-23T15:21:09.990Z,20.77
2018-05-23T15:23:36.765Z,19.67
2018-05-23T15:26:03.628Z,18.40
2018-05-23T15:28:30.442Z,19.13
2018-05-23T15:30:57.317Z,20.58
2018-05-23T15:33:24.135Z,20.90
2018-05-23T15:35:51.125Z,20.73
2018-05-23T15:38:18.720Z,18.35
2018-05-23T15:40:45.480Z,17.08
2018-05-23T15:43:12.326Z,16.92
2018-05-23T15:45:39.855Z,17.77
2018-05-23T15:48:06.659Z,17.92
2018-05-23T15:50:33.460Z,16.00
2018-05-23T15:53:00.303Z,17.67
2018-05-23T15:55:27.143Z,16.15
2018-05-23T15:57:54.000Z,16.58
2018-05-23T16:00:20.856Z,16.33
2018-05-23T16:02:47.671Z,16.73
2018-05-23T16:05:14.548Z,15.93
2018-05-23T16:07:41.313Z,16.27
2018-05-23T16:10:08.117Z,18.10
2018-05-23T16:12:34.883Z,18.05
2018-05-23T16:15:01.642Z,15.95
2018-05-23T16:17:28.438Z,14.05
2018-05-23T16:19:55.226Z,14.20
2018-05-23T16:22:22.019Z,14.75
2018-05-23T16:24:48.804Z,15.65
2018-05-23T16:27:15.594Z,14.40
2018-05-23T16:29:42.397Z,16.12
2018-05-23T16:32:09.393Z,13.62
2018-05-23T16:34:36.219Z,13.77
2018-05-23T16:37:03.039Z,14.13
2018-05-23T16:39:29.805Z,12.68
2018-05-23T16:41:56.937Z,12.30
2018-05-23T16:44:23.761Z,13.13
2018-05-23T16:46:50.490Z,14.00
2018-05-23T16:49:17.281Z,19.87
2018-05-23T16:51:44.025Z,12.67
2018-05-23T16:54:10.781Z,15.13
2018-05-23T16:56:37.549Z,13.10
2018-05-23T16:59:04.321Z,11.97
2018-05-23T17:01:31.124Z,11.57
2018-05-23T17:03:57.907Z,11.10
2018-05-23T17:06:24.732Z,14.73
2018-05-23T17:08:51.495Z,12.17
2018-05-23T17:11:18.249Z,11.00
2018-05-23T17:13:45.038Z,12.83
2018-05-23T17:16:11.832Z,13.90
2018-05-23T17:18:38.675Z,12.50
2018-05-23T17:21:05.415Z,12.67
2018-05-23T17:23:32.259Z,13.17
2018-05-23T17:25:59.013Z,10.07
2018-05-23T17:28:25.762Z,9.57
2018-05-23T17:30:52.517Z,9.70
2018-05-23T17:33:19.556Z,13.17
2018-05-23T17:35:46.341Z,9.70
2018-05-23T17:38:13.137Z,9.47
2018-05-23T17:40:39.962Z,9.23
2018-05-23T17:43:06.749Z,8.83
2018-05-23T17:45:33.565Z,11.40
2018-05-23T17:48:00.636Z,10.17
2018-05-23T17:50:27.413Z,8.47
2018-05-23T17:52:54.224Z,7.30
2018-05-23T17:55:20.989Z,8.60
2018-05-23T17:57:47.816Z,9.83
2018-05-23T18:00:14.656Z,9.17
2018-05-23T18:02:41.400Z,6.53
2018-05-23T18:05:08.825Z,11.23
2018-05-23T18:07:36.444Z,8.97
2018-05-23T18:10:03.282Z,6.67
2018-05-23T18:12:30.149Z,6.50
2018-05-23T18:14:56.953Z,8.07
2018-05-23T18:17:23.778Z,7.50
2018-05-23T18:19:51.466Z,7.80
2018-05-23T18:22:18.274Z,8.47
2018-05-23T18:24:45.027Z,6.50
2018-05-23T18:27:11.781Z,7.80
2018-05-23T18:29:38.579Z,10.40
2018-05-23T18:32:05.341Z,8.23
2018-05-23T18:34:32.099Z,148.43
2018-05-23T18:36:58.876Z,82.80
2018-05-23T18:39:25.686Z,50.50
2018-05-23T18:41:52.461Z,97.87
2018-05-23T18:44:19.267Z,140.40
2018-05-23T18:46:46.017Z,124.27
2018-05-23T18:49:12.786Z,47.80
2018-05-23T18:51:39.580Z,59.73
2018-05-23T18:54:06.335Z,21.07
2018-05-23T18:56:34.499Z,42.90
2018-05-23T18:59:01.296Z,24.37
2018-05-23T19:01:28.129Z,25.27
2018-05-23T19:03:54.935Z,24.20
2018-05-23T19:06:32.683Z,64.20
2018-05-23T19:08:59.797Z,32.07
2018-05-23T19:11:26.551Z,23.43
2018-05-23T19:13:53.415Z,29.33
2018-05-23T19:16:20.217Z,28.47
2018-05-23T19:18:46.989Z,94.17
2018-05-23T19:21:13.831Z,23.07
2018-05-23T19:23:43.580Z,95.87
2018-05-23T19:26:12.326Z,25.73
2018-05-23T19:28:39.187Z,17.43
2018-05-23T19:31:05.985Z,36.73
2018-05-23T19:33:32.800Z,42.60
2018-05-23T19:35:59.573Z,33.50
2018-05-23T19:38:27.157Z,19.23
2018-05-23T19:40:53.975Z,14.47
2018-05-23T19:43:21.036Z,15.80
2018-05-23T19:45:47.857Z,11.00
2018-05-23T19:48:14.643Z,10.23
2018-05-23T19:50:43.277Z,13.00
2018-05-23T19:53:10.049Z,16.77
2018-05-23T19:55:36.805Z,9.17
2018-05-23T19:58:03.552Z,9.23
2018-05-23T20:00:30.705Z,10.03
2018-05-23T20:02:57.516Z,17.30
2018-05-23T20:05:24.839Z,6.30
2018-05-23T20:07:51.709Z,9.27
2018-05-23T20:10:18.438Z,7.10
2018-05-23T20:12:45.177Z,7.37
2018-05-23T20:15:12.010Z,7.73
2018-05-23T20:17:38.809Z,7.80
2018-05-23T20:20:05.569Z,5.30
2018-05-23T20:22:32.356Z,6.83
2018-05-23T20:24:59.200Z,6.23
2018-05-23T20:27:26.010Z,6.10
2018-05-23T20:29:52.832Z,6.40
2018-05-23T20:32:19.638Z,5.53
2018-05-23T20:34:46.388Z,7.77
2018-05-23T20:37:13.273Z,8.07
2018-05-23T20:39:40.702Z,8.97
2018-05-23T20:42:07.455Z,5.43
2018-05-23T20:44:34.577Z,8.87
2018-05-23T20:47:01.350Z,7.73
2018-05-23T20:49:28.089Z,8.07
2018-05-23T20:51:54.954Z,10.13
2018-05-23T20:54:21.825Z,11.63
2018-05-23T20:56:48.598Z,5.57
2018-05-23T20:59:15.419Z,6.97
2018-05-23T21:01:43.240Z,5.60
2018-05-23T21:04:10.169Z,6.27
2018-05-23T21:06:37.017Z,6.30
2018-05-23T21:09:03.883Z,5.80
2018-05-23T21:11:30.772Z,8.47
2018-05-23T21:13:57.578Z,8.57
2018-05-23T21:16:24.748Z,6.77
2018-05-23T21:18:52.450Z,6.33
2018-05-23T21:21:20.134Z,8.00
2018-05-23T21:23:47.026Z,6.47
2018-05-23T21:26:13.926Z,6.10
2018-05-23T21:28:40.774Z,7.30
2018-05-23T21:31:07.655Z,7.10
2018-05-23T21:33:34.459Z,7.70
2018-05-23T21:36:01.374Z,6.30
2018-05-23T21:38:28.157Z,9.43
2018-05-23T21:40:55.037Z,8.03
2018-05-23T21:43:21.833Z,7.53
2018-05-23T21:45:48.663Z,8.53
2018-05-23T21:48:15.632Z,6.57
2018-05-23T21:50:44.058Z,9.17
2018-05-23T21:53:10.837Z,6.73
2018-05-23T21:55:37.565Z,6.43
2018-05-23T21:58:04.425Z,12.63
2018-05-23T22:00:31.287Z,10.23
2018-05-23T22:02:58.061Z,8.23
2018-05-23T22:05:24.784Z,9.70
2018-05-23T22:07:51.589Z,5.90
2018-05-23T22:10:18.365Z,14.27
2018-05-23T22:12:45.188Z,9.70
2018-05-23T22:15:12.033Z,7.07
2018-05-23T22:17:38.816Z,8.87
2018-05-23T22:20:05.633Z,6.87
2018-05-23T22:22:32.581Z,8.50
2018-05-23T22:24:59.353Z,6.63
2018-05-23T22:27:26.259Z,7.53
2018-05-23T22:29:53.123Z,6.50
2018-05-23T22:32:19.857Z,9.13
2018-05-23T22:34:46.741Z,7.10
2018-05-23T22:37:13.549Z,9.03
2018-05-23T22:39:41.885Z,6.00
2018-05-23T22:42:08.764Z,6.80
2018-05-23T22:44:35.709Z,5.83
2018-05-23T22:47:02.487Z,6.23
2018-05-23T22:49:29.273Z,8.43
2018-05-23T22:51:56.137Z,6.73
2018-05-23T22:54:22.912Z,6.83
2018-05-23T22:56:49.680Z,6.53
2018-05-23T22:59:16.445Z,6.07
2018-05-23T23:01:43.220Z,8.33
2018-05-23T23:04:09.997Z,10.83
2018-05-23T23:06:36.773Z,7.97
2018-05-23T23:09:03.595Z,8.77
2018-05-23T23:11:30.352Z,9.37
2018-05-23T23:13:57.134Z,7.90
2018-05-23T23:16:23.881Z,10.60
2018-05-23T23:18:50.659Z,6.20
2018-05-23T23:21:17.389Z,7.43
2018-05-23T23:23:44.137Z,11.90
2018-05-23T23:26:10.876Z,9.80
2018-05-23T23:28:37.621Z,10.03
2018-05-23T23:31:04.405Z,9.83
2018-05-23T23:33:31.148Z,18.57
2018-05-23T23:35:57.900Z,12.33
2018-05-23T23:38:24.684Z,9.07
2018-05-23T23:40:51.460Z,8.53
2018-05-23T23:43:18.233Z,9.93
2018-05-23T23:45:44.974Z,6.37
2018-05-23T23:48:11.716Z,5.57
2018-05-23T23:50:38.460Z,5.73
2018-05-23T23:53:05.225Z,6.13
2018-05-23T23:55:31.963Z,6.80
2018-05-23T23:57:58.706Z,6.70
